createdAt,value
2022-11-19T00:04:07.542Z,10.18
2022-11-19T00:09:09.346Z,10.55
2022-11-19T00:14:14.910Z,9.48
2022-11-19T00:19:17.014Z,11.05
2022-11-19T00:24:19.089Z,11.75
2022-11-19T00:29:21.204Z,11.83
2022-11-19T00:34:23.103Z,11.82
2022-11-19T00:39:24.835Z,12.87
2022-11-19T00:44:26.553Z,10.50
2022-11-19T00:49:28.221Z,12.90
2022-11-19T00:54:30.241Z,10.77
2022-11-19T00:59:31.969Z,10.13
2022-11-19T01:04:33.681Z,9.63
2022-11-19T01:09:35.379Z,8.38
2022-11-19T01:14:37.046Z,9.00
2022-11-19T01:19:38.707Z,7.90
2022-11-19T01:24:40.426Z,7.43
2022-11-19T01:29:42.113Z,7.05
2022-11-19T01:34:43.822Z,7.47
2022-11-19T01:39:45.587Z,7.25
2022-11-19T01:45:01.051Z,7.53
2022-11-19T01:50:03.026Z,7.17
2022-11-19T01:55:05.294Z,7.85
2022-11-19T02:00:08.458Z,7.18
2022-11-19T02:05:10.176Z,8.37
2022-11-19T02:10:12.282Z,7.75
2022-11-19T02:15:19.888Z,7.20
2022-11-19T02:20:37.292Z,6.30
2022-11-19T02:25:38.967Z,4.50
2022-11-19T02:30:50.117Z,3.72
2022-11-19T02:36:23.233Z,3.43
2022-11-19T02:41:34.252Z,3.10
2022-11-19T02:46:36.567Z,3.55
2022-11-19T02:51:38.726Z,2.67
2022-11-19T02:56:54.919Z,3.45
2022-11-19T03:01:57.418Z,2.88
2022-11-19T03:07:09.348Z,2.53
2022-11-19T03:12:20.734Z,3.13
2022-11-19T03:17:37.522Z,3.35
2022-11-19T03:22:51.986Z,3.42
2022-11-19T03:27:58.527Z,2.78
2022-11-19T03:33:14.947Z,2.50
2022-11-19T03:38:23.293Z,2.90
2022-11-19T03:43:29.231Z,2.10
2022-11-19T03:48:31.474Z,3.00
2022-11-19T03:53:33.283Z,2.60
2022-11-19T03:58:40.562Z,2.80
2022-11-19T04:03:42.313Z,2.85
2022-11-19T04:08:44.084Z,3.00
2022-11-19T04:13:45.767Z,2.75
2022-11-19T04:18:47.419Z,3.15
2022-11-19T04:23:49.384Z,2.60
2022-11-19T04:28:51.125Z,3.13
2022-11-19T04:33:52.777Z,3.30
2022-11-19T04:38:54.574Z,2.50
2022-11-19T04:43:56.367Z,2.97
2022-11-19T04:48:58.205Z,2.70
2022-11-19T04:53:59.957Z,3.00
2022-11-19T04:59:01.689Z,2.40
2022-11-19T05:04:03.472Z,2.60
2022-11-19T05:09:05.247Z,2.45
2022-11-19T05:14:06.974Z,2.63
2022-11-19T05:19:08.750Z,2.77
2022-11-19T05:24:10.596Z,2.50
2022-11-19T05:29:12.396Z,2.78
2022-11-19T05:34:14.156Z,2.57
2022-11-19T05:39:21.645Z,2.78
2022-11-19T05:44:23.980Z,3.83
2022-11-19T05:49:25.842Z,2.40
2022-11-19T05:54:27.590Z,2.50
2022-11-19T05:59:29.330Z,2.10
2022-11-19T06:04:31.345Z,2.83
2022-11-19T06:09:33.080Z,2.42
2022-11-19T06:14:34.843Z,2.33
2022-11-19T06:19:36.523Z,2.35
2022-11-19T06:24:38.240Z,2.17
2022-11-19T06:29:39.927Z,1.65
2022-11-19T06:34:41.618Z,2.00
2022-11-19T06:39:43.512Z,1.83
2022-11-19T06:44:45.244Z,2.33
2022-11-19T06:49:46.956Z,2.20
2022-11-19T06:54:49.395Z,2.43
2022-11-19T06:59:51.190Z,2.30
2022-11-19T07:04:52.900Z,1.98
2022-11-19T07:09:54.610Z,2.38
2022-11-19T07:15:01.122Z,2.05
2022-11-19T07:20:06.435Z,2.60
2022-11-19T07:25:09.417Z,2.95
2022-11-19T07:30:11.287Z,2.53
2022-11-19T07:35:13.004Z,2.40
2022-11-19T07:40:15.003Z,2.65
2022-11-19T07:45:18.307Z,2.47
2022-11-19T07:50:20.010Z,2.60
2022-11-19T07:55:21.776Z,2.40
2022-11-19T08:00:23.578Z,2.30
2022-11-19T08:05:25.295Z,2.17
2022-11-19T08:10:31.631Z,2.35
2022-11-19T08:15:34.420Z,2.08
2022-11-19T08:20:36.157Z,3.25
2022-11-19T08:25:38.608Z,2.20
2022-11-19T08:30:40.425Z,14.82
2022-11-19T08:35:42.123Z,2.30
2022-11-19T08:40:43.872Z,1.90
2022-11-19T08:45:52.738Z,2.63
2022-11-19T08:50:54.508Z,2.95
2022-11-19T08:55:56.191Z,2.23
2022-11-19T09:00:57.945Z,2.70
2022-11-19T09:06:00.494Z,3.20
2022-11-19T09:11:17.384Z,3.45
2022-11-19T09:16:19.117Z,3.15
2022-11-19T09:21:20.825Z,3.80
2022-11-19T09:26:22.551Z,3.42
2022-11-19T09:31:24.378Z,3.10
2022-11-19T09:36:26.120Z,4.17
2022-11-19T09:42:02.112Z,3.65
2022-11-19T09:47:07.011Z,3.88
2022-11-19T09:52:15.694Z,3.42
2022-11-19T09:57:46.334Z,3.17
2022-11-19T10:02:48.227Z,3.20
2022-11-19T10:07:58.847Z,3.03
2022-11-19T10:13:27.842Z,3.13
2022-11-19T10:18:38.525Z,2.63
2022-11-19T10:24:18.033Z,2.90
2022-11-19T10:29:25.896Z,2.15
2022-11-19T10:34:36.589Z,2.78
2022-11-19T10:39:56.954Z,2.72
2022-11-19T10:45:13.598Z,3.40
2022-11-19T10:50:24.074Z,3.38
2022-11-19T10:55:41.605Z,2.70
2022-11-19T11:00:43.961Z,3.22
2022-11-19T11:05:58.158Z,3.25
2022-11-19T11:11:00.821Z,3.22
2022-11-19T11:16:11.379Z,2.35
2022-11-19T11:21:28.750Z,2.47
2022-11-19T11:26:33.293Z,1.63
2022-11-19T11:31:36.217Z,2.25
2022-11-19T11:36:38.365Z,2.08
2022-11-19T11:47:13.026Z,2.03
2022-11-19T11:52:22.413Z,2.20
2022-11-19T11:57:27.504Z,2.45
2022-11-19T12:02:32.072Z,2.38
2022-11-19T12:07:46.073Z,2.30
2022-11-19T12:12:56.338Z,3.15
2022-11-19T12:18:19.087Z,1.92
2022-11-19T12:23:20.755Z,2.60
2022-11-19T12:28:31.694Z,2.33
2022-11-19T12:33:56.059Z,2.75
2022-11-19T12:39:00.605Z,2.45
2022-11-19T12:44:08.254Z,2.47
2022-11-19T12:49:22.588Z,3.38
2022-11-19T12:54:35.423Z,2.58
2022-11-19T13:00:03.638Z,2.88
2022-11-19T13:05:14.008Z,3.40
2022-11-19T13:10:21.835Z,3.60
2022-11-19T13:15:43.315Z,3.17
2022-11-19T13:20:56.623Z,3.15
2022-11-19T13:26:06.457Z,3.00
2022-11-19T13:31:22.337Z,2.92
2022-11-19T13:36:40.939Z,3.95
2022-11-19T13:41:54.997Z,2.67
2022-11-19T13:47:01.239Z,3.42
2022-11-19T13:52:31.226Z,3.40
2022-11-19T13:57:37.400Z,4.20
2022-11-19T14:02:41.886Z,3.03
2022-11-19T14:08:07.743Z,5.13
2022-11-19T14:13:29.692Z,6.10
2022-11-19T14:18:39.546Z,4.77
2022-11-19T14:23:49.466Z,4.28
2022-11-19T14:28:52.793Z,4.43
2022-11-19T14:34:01.996Z,5.57
2022-11-19T14:39:13.168Z,4.32
2022-11-19T14:44:27.074Z,3.80
2022-11-19T14:49:36.902Z,7.07
2022-11-19T14:54:45.464Z,4.72
2022-11-19T14:59:52.191Z,3.92
2022-11-19T15:04:58.998Z,3.20
2022-11-19T15:10:10.446Z,4.25
2022-11-19T15:15:21.960Z,4.18
2022-11-19T15:20:36.975Z,3.80
2022-11-19T15:25:52.215Z,3.97
2022-11-19T15:31:23.247Z,3.60
2022-11-19T15:36:45.067Z,4.35
2022-11-19T15:41:51.056Z,3.67
2022-11-19T15:46:56.596Z,3.55
2022-11-19T15:52:14.616Z,4.90
2022-11-19T15:57:19.472Z,5.32
2022-11-19T16:02:37.699Z,4.68
2022-11-19T16:07:40.509Z,3.85
2022-11-19T16:12:55.218Z,5.72
2022-11-19T16:17:57.867Z,5.32
2022-11-19T16:23:07.827Z,5.72
2022-11-19T16:28:19.902Z,6.20
2022-11-19T16:33:28.040Z,7.22
2022-11-19T16:38:30.160Z,7.20
2022-11-19T16:43:32.002Z,8.80
2022-11-19T16:48:42.537Z,7.50
2022-11-19T16:53:46.263Z,6.70
2022-11-19T16:58:48.029Z,6.72
2022-11-19T17:03:49.870Z,6.03
2022-11-19T17:08:57.234Z,7.20
2022-11-19T17:14:03.926Z,6.50
2022-11-19T17:19:32.506Z,6.37
2022-11-19T17:24:45.047Z,8.38
2022-11-19T17:29:46.804Z,6.53
2022-11-19T17:34:48.491Z,7.13
2022-11-19T17:39:50.182Z,6.65
2022-11-19T17:44:52.011Z,6.93
2022-11-19T17:49:53.754Z,7.70
2022-11-19T17:54:58.662Z,6.60
2022-11-19T18:00:00.482Z,6.63
2022-11-19T18:05:02.332Z,5.47
2022-11-19T18:10:04.459Z,5.60
2022-11-19T18:15:06.656Z,5.32
2022-11-19T18:20:09.125Z,6.55
2022-11-19T18:25:16.013Z,6.10
2022-11-19T18:30:17.868Z,6.57
2022-11-19T18:35:20.765Z,6.93
2022-11-19T18:40:22.456Z,7.18
2022-11-19T18:45:25.028Z,7.70
2022-11-19T18:50:30.149Z,8.07
2022-11-19T18:55:32.171Z,8.45
2022-11-19T19:00:34.031Z,7.87
2022-11-19T19:05:35.747Z,8.32
2022-11-19T19:10:38.025Z,9.63
2022-11-19T19:15:40.348Z,9.77
2022-11-19T19:20:42.099Z,10.48
2022-11-19T19:25:43.809Z,8.05
2022-11-19T19:30:45.517Z,7.43
2022-11-19T19:35:47.253Z,13.77
2022-11-19T19:40:48.956Z,14.10
2022-11-19T19:45:50.658Z,8.35
2022-11-19T19:50:52.314Z,8.63
2022-11-19T19:56:04.883Z,8.85
2022-11-19T20:01:08.977Z,9.20
2022-11-19T20:06:12.940Z,9.07
2022-11-19T20:11:17.994Z,10.10
2022-11-19T20:16:28.435Z,10.88
2022-11-19T20:21:32.229Z,10.95
2022-11-19T20:26:34.424Z,11.13
2022-11-19T20:31:36.148Z,12.00
2022-11-19T20:36:38.064Z,11.20
2022-11-19T20:41:39.967Z,11.05
2022-11-19T20:46:41.831Z,11.30
2022-11-19T20:51:43.842Z,10.27
2022-11-19T20:56:46.034Z,10.33
2022-11-19T21:01:49.867Z,10.38
2022-11-19T21:06:52.028Z,11.23
2022-11-19T21:11:54.081Z,10.75
2022-11-19T21:16:56.100Z,11.93
2022-11-19T21:21:58.174Z,12.07
2022-11-19T21:27:00.590Z,11.80
2022-11-19T21:32:02.468Z,13.60
2022-11-19T21:37:04.174Z,10.07
2022-11-19T21:42:05.985Z,9.90
2022-11-19T21:47:08.116Z,8.98
2022-11-19T21:52:09.859Z,9.40
2022-11-19T21:57:11.602Z,9.75
2022-11-19T22:02:14.048Z,10.27
2022-11-19T22:07:16.259Z,9.57
2022-11-19T22:12:18.002Z,9.27
2022-11-19T22:17:19.699Z,9.50
2022-11-19T22:22:21.612Z,10.57
2022-11-19T22:27:23.370Z,10.13
2022-11-19T22:32:25.039Z,9.50
2022-11-19T22:37:26.729Z,10.27
2022-11-19T22:42:28.493Z,11.10
2022-11-19T22:47:30.203Z,10.68
2022-11-19T22:52:31.945Z,10.60
2022-11-19T22:57:33.632Z,10.10
2022-11-19T23:02:35.509Z,10.30
2022-11-19T23:07:37.209Z,11.38
2022-11-19T23:12:38.998Z,10.73
2022-11-19T23:17:43.713Z,10.98
2022-11-19T23:22:45.567Z,10.73
2022-11-19T23:27:47.273Z,14.63
2022-11-19T23:32:48.930Z,9.80
2022-11-19T23:37:50.640Z,7.38
2022-11-19T23:42:52.382Z,8.33
2022-11-19T23:47:54.079Z,8.75
2022-11-19T23:52:55.784Z,9.10
2022-11-19T23:57:57.522Z,8.27
